Terminal Aerodrome Forecast
Issued by NWS Sioux Falls, SD

Home | Current Version | Previous Version | Text Only | Print | Product List | Glossary Off
Versions: 1 2 3 4 5 6 7 8 9 10 11 12 13 14 15 16 17 18 19 20 21 22 23 24 25 26 27 28 29 30 31 32

209
FTUS43 KFSD 211145
TAFSUX
TAF
KSUX 211145Z 2112/2212 14007KT P6SM SCT100 BKN200
     FM211400 17008KT P6SM BKN200
     FM211700 18012KT P6SM SCT200
     FM212300 20012KT P6SM VCTS SCT045 BKN060CB
     FM220400 25004KT P6SM BKN200
     FM220700 31005KT P6SM BKN150
     FM221100 32005KT P6SM SCT090=

USA.gov is the U.S. government's official web portal to all federal, state and local government web resources and services.